Time;durP1;ratioP1;P1;durP2;ratioP2;P2;SDS_P1;SDS_P2;PMS_P1;PMS_P2;Temp;Humidity;BMP_temperature;BMP_pressure;BME280_temperature;BME280_humidity;BME280_pressure;Samples;Min_cycle;Max_cycle;Signal;HPM_P1;HPM_P2
2022/10/19 00:01:52;;;;;;;6.85;1.42;;;12.40;99.90;;;;;;5135331;27;20043;-79
2022/10/19 00:04:18;;;;;;;10.95;1.50;;;12.40;99.90;;;;;;5135052;27;20405;-79
2022/10/19 00:06:44;;;;;;;9.65;1.40;;;12.40;99.90;;;;;;5137459;27;20494;-76
2022/10/19 00:09:19;;;;;;;7.18;1.80;;;12.40;99.90;;;;;;5135684;27;20047;-77
2022/10/19 00:11:48;;;;;;;14.18;1.63;;;12.30;99.90;;;;;;5135257;27;20417;-78
2022/10/19 00:14:17;;;;;;;6.20;1.10;;;12.30;99.90;;;;;;5116563;27;20051;-77
2022/10/19 00:16:45;;;;;;;6.93;1.30;;;12.30;99.90;;;;;;5116348;27;20047;-76
2022/10/19 00:19:15;;;;;;;8.88;1.20;;;12.30;99.90;;;;;;5135052;27;20094;-78
2022/10/19 00:21:41;;;;;;;6.13;1.02;;;12.30;99.90;;;;;;5138624;27;20047;-78
2022/10/19 00:24:07;;;;;;;7.70;1.10;;;12.30;99.90;;;;;;5116864;27;20487;-79
2022/10/19 00:26:34;;;;;;;7.40;1.30;;;12.30;99.90;;;;;;5134842;27;20521;-79
2022/10/19 00:29:00;;;;;;;9.30;1.45;;;12.30;99.90;;;;;;5134886;27;20062;-78
2022/10/19 00:31:26;;;;;;;9.65;1.50;;;12.30;99.90;;;;;;5134590;27;20050;-76
2022/10/19 00:33:54;;;;;;;9.38;1.67;;;12.30;99.90;;;;;;5116391;27;20051;-78
2022/10/19 00:36:26;;;;;;;7.35;1.10;;;12.30;99.90;;;;;;5136432;27;20096;-76
2022/10/19 00:38:53;;;;;;;14.13;1.77;;;12.30;99.90;;;;;;5133227;27;20082;-79
2022/10/19 00:41:22;;;;;;;9.48;1.10;;;12.30;99.90;;;;;;5134762;27;20139;-78
2022/10/19 00:43:55;;;;;;;12.40;1.88;;;12.30;99.90;;;;;;5098763;27;20047;-78
2022/10/19 00:46:22;;;;;;;11.73;1.30;;;12.20;99.90;;;;;;5116543;27;20055;-78
2022/10/19 00:48:49;;;;;;;9.77;1.30;;;12.30;99.90;;;;;;5115702;27;20138;-76
2022/10/19 00:51:15;;;;;;;5.50;1.48;;;12.20;99.90;;;;;;5136115;27;20053;-78
2022/10/19 00:53:41;;;;;;;7.40;1.55;;;12.20;99.90;;;;;;5115758;27;20063;-78
2022/10/19 00:56:11;;;;;;;10.70;1.33;;;12.20;99.90;;;;;;5132716;27;20134;-78
2022/10/19 00:58:40;;;;;;;11.18;1.80;;;12.20;99.90;;;;;;5133093;27;20399;-80
2022/10/19 01:01:09;;;;;;;7.43;1.20;;;12.20;99.90;;;;;;5116042;27;20050;-80
2022/10/19 01:03:36;;;;;;;8.10;1.02;;;12.20;99.90;;;;;;5134124;27;20130;-77
2022/10/19 01:06:02;;;;;;;9.52;1.65;;;12.20;99.90;;;;;;5115689;27;20142;-79
2022/10/19 01:08:31;;;;;;;7.35;1.20;;;12.20;99.90;;;;;;5134069;27;20039;-76
2022/10/19 01:11:05;;;;;;;6.93;1.55;;;12.20;99.90;;;;;;5135930;27;20365;-78
2022/10/19 01:13:46;;;;;;;8.65;1.10;;;12.20;99.90;;;;;;5133854;27;20139;-79
2022/10/19 01:16:12;;;;;;;11.50;2.58;;;12.20;99.90;;;;;;5133506;27;20072;-78
2022/10/19 01:18:57;;;;;;;11.18;2.05;;;12.20;99.90;;;;;;5116075;27;20047;-78
2022/10/19 01:21:36;;;;;;;16.40;2.67;;;12.20;99.90;;;;;;5133886;27;20563;-79
2022/10/19 01:24:32;;;;;;;18.40;2.45;;;12.20;99.90;;;;;;5101825;27;20517;-78
2022/10/19 01:27:32;;;;;;;13.48;1.90;;;12.30;99.90;;;;;;5115843;27;20103;-77
2022/10/19 01:30:38;;;;;;;7.57;1.70;;;12.30;99.90;;;;;;5114772;27;20051;-77
2022/10/19 01:33:25;;;;;;;13.93;2.63;;;12.30;99.90;;;;;;5133837;27;20054;-78
2022/10/19 01:36:06;;;;;;;10.10;1.95;;;12.30;99.90;;;;;;5133695;27;20091;-80
2022/10/19 01:39:06;;;;;;;12.38;1.90;;;12.30;99.90;;;;;;5135648;27;20047;-79
2022/10/19 01:41:52;;;;;;;21.55;3.30;;;12.20;99.90;;;;;;5099887;27;20106;-80
2022/10/19 01:44:28;;;;;;;13.40;2.00;;;12.20;99.90;;;;;;5133334;27;20067;-80
2022/10/19 01:46:59;;;;;;;15.52;1.92;;;12.20;99.90;;;;;;5134357;27;20050;-80
2022/10/19 01:49:34;;;;;;;10.30;3.13;;;12.20;99.90;;;;;;5119176;27;20454;-78
2022/10/19 01:52:02;;;;;;;;;;;12.20;99.90;;;;;;5133720;27;20057;-79
2022/10/19 01:54:33;;;;;;;13.25;2.25;;;12.20;99.90;;;;;;5135436;27;19969;-78
2022/10/19 01:57:03;;;;;;;12.02;1.52;;;12.10;99.90;;;;;;5115877;27;20091;-79
2022/10/19 01:59:31;;;;;;;12.43;1.40;;;12.10;99.90;;;;;;5115620;27;20051;-77
2022/10/19 02:01:57;;;;;;;12.25;2.53;;;12.10;99.90;;;;;;5133750;27;20101;-78
2022/10/19 02:04:24;;;;;;;12.88;2.28;;;12.10;99.90;;;;;;5134063;27;20055;-78
2022/10/19 02:06:52;;;;;;;11.10;1.45;;;12.10;99.90;;;;;;5134408;27;20341;-80
2022/10/19 02:09:19;;;;;;;12.95;2.70;;;12.10;99.90;;;;;;5133359;27;20055;-78
2022/10/19 02:11:48;;;;;;;11.63;2.42;;;12.10;99.90;;;;;;5116444;27;20086;-77
2022/10/19 02:14:18;;;;;;;14.85;2.10;;;12.10;99.90;;;;;;5133128;27;20098;-79
2022/10/19 02:16:53;;;;;;;16.10;2.08;;;12.10;99.90;;;;;;5114350;27;20055;-78
2022/10/19 02:19:21;;;;;;;13.75;2.40;;;12.10;99.90;;;;;;5133139;27;20059;-79
2022/10/19 02:21:47;;;;;;;11.43;1.90;;;12.10;99.90;;;;;;5113900;27;20086;-76
2022/10/19 02:24:13;;;;;;;15.45;2.08;;;12.10;99.90;;;;;;5133286;27;20055;-78
2022/10/19 02:26:40;;;;;;;12.23;1.92;;;12.10;99.90;;;;;;5135208;27;20051;-78
2022/10/19 02:29:07;;;;;;;11.80;2.55;;;12.10;99.90;;;;;;5132220;27;20506;-78
2022/10/19 02:31:32;;;;;;;11.57;2.33;;;12.10;99.90;;;;;;5097097;27;20092;-76
2022/10/19 02:33:59;;;;;;;13.45;1.70;;;12.10;99.90;;;;;;5132243;27;20502;-78
2022/10/19 02:36:25;;;;;;;10.95;1.80;;;12.10;99.90;;;;;;5132531;27;20043;-80
2022/10/19 02:38:51;;;;;;;14.73;1.92;;;12.10;99.90;;;;;;5135684;27;20054;-77
2022/10/19 02:41:29;;;;;;;14.57;1.80;;;12.10;99.90;;;;;;5113948;27;20545;-80
2022/10/19 02:44:09;;;;;;;9.88;1.90;;;12.00;99.90;;;;;;5131899;27;20265;-79
2022/10/19 02:46:41;;;;;;;11.82;1.95;;;12.00;99.90;;;;;;5113645;27;20196;-79
2022/10/19 02:49:08;;;;;;;8.55;1.80;;;11.90;99.90;;;;;;5131052;27;20115;-79
2022/10/19 02:51:46;;;;;;;14.68;1.65;;;11.90;99.90;;;;;;5132405;27;20681;-80
2022/10/19 02:54:11;;;;;;;11.30;1.67;;;11.80;99.90;;;;;;5132423;27;20410;-77
2022/10/19 02:56:37;;;;;;;15.85;3.13;;;11.70;99.90;;;;;;5136914;27;20053;-77
2022/10/19 02:59:04;;;;;;;12.07;1.55;;;11.70;99.90;;;;;;5133522;27;20031;-79
2022/10/19 03:01:29;;;;;;;13.35;1.70;;;11.60;99.90;;;;;;5114338;27;20047;-78
2022/10/19 03:03:55;;;;;;;13.05;1.98;;;11.50;99.90;;;;;;5132652;27;20050;-77
2022/10/19 03:06:21;;;;;;;14.50;3.08;;;11.50;99.90;;;;;;5113639;28;20532;-79
2022/10/19 03:08:47;;;;;;;10.25;2.33;;;11.50;99.90;;;;;;5114556;28;20055;-76
2022/10/19 03:11:13;;;;;;;9.43;1.77;;;11.40;99.90;;;;;;5135521;28;20479;-77
2022/10/19 03:13:40;;;;;;;12.38;1.63;;;11.30;99.90;;;;;;5132113;28;20499;-78
2022/10/19 03:16:10;;;;;;;11.43;2.10;;;11.30;99.90;;;;;;5132013;28;20051;-79
2022/10/19 03:18:36;;;;;;;14.05;1.95;;;11.20;99.90;;;;;;5132469;28;20047;-77
2022/10/19 03:21:08;;;;;;;14.48;2.08;;;11.20;99.90;;;;;;5115206;27;20086;-77
2022/10/19 03:23:34;;;;;;;11.90;1.65;;;11.20;99.90;;;;;;5135761;27;20050;-76
2022/10/19 03:26:01;;;;;;;8.85;1.48;;;11.20;99.90;;;;;;5119478;27;20059;-76
2022/10/19 03:28:27;;;;;;;12.07;1.50;;;11.10;99.90;;;;;;5138047;27;20048;-79
2022/10/19 03:30:55;;;;;;;7.82;1.40;;;11.10;99.90;;;;;;5117538;27;20414;-77
2022/10/19 03:33:21;;;;;;;13.63;2.03;;;11.00;99.90;;;;;;5136062;27;20055;-79
2022/10/19 03:35:47;;;;;;;14.77;1.50;;;11.00;99.90;;;;;;5134764;27;20043;-78
2022/10/19 03:38:13;;;;;;;11.23;1.52;;;11.00;99.90;;;;;;5136870;27;20071;-79
2022/10/19 03:40:40;;;;;;;10.85;1.63;;;11.00;99.90;;;;;;5135972;27;20469;-79
2022/10/19 03:43:06;;;;;;;13.20;2.08;;;11.00;99.90;;;;;;5120168;27;20047;-78
2022/10/19 03:45:32;;;;;;;10.15;1.73;;;11.00;99.90;;;;;;5117011;27;20483;-76
2022/10/19 03:47:58;;;;;;;9.05;2.10;;;11.00;99.90;;;;;;5117244;27;20058;-76
2022/10/19 03:50:24;;;;;;;13.32;2.17;;;11.10;99.90;;;;;;5117060;27;20043;-76
2022/10/19 03:52:50;;;;;;;20.00;2.75;;;11.10;99.90;;;;;;5116998;27;20531;-77
2022/10/19 03:55:16;;;;;;;10.68;2.33;;;11.20;99.90;;;;;;5135733;27;20058;-76
2022/10/19 03:57:42;;;;;;;9.82;1.75;;;11.20;99.90;;;;;;5138967;27;20121;-77
2022/10/19 04:00:10;;;;;;;8.52;1.50;;;11.20;99.90;;;;;;5123901;27;20047;-78
2022/10/19 04:02:36;;;;;;;14.63;1.70;;;11.20;99.90;;;;;;5135675;27;20043;-78
2022/10/19 04:05:01;;;;;;;16.20;2.20;;;11.20;99.90;;;;;;5135079;27;20460;-78
2022/10/19 04:07:27;;;;;;;12.23;2.17;;;11.10;99.90;;;;;;5126958;27;20138;-79
2022/10/19 04:09:53;;;;;;;9.48;2.42;;;11.10;99.90;;;;;;5135329;27;20047;-78
2022/10/19 04:12:19;;;;;;;15.35;2.22;;;11.00;99.90;;;;;;5135016;27;20115;-80
2022/10/19 04:14:45;;;;;;;14.25;2.30;;;11.00;99.90;;;;;;5116934;27;20051;-78
2022/10/19 04:17:11;;;;;;;16.50;2.00;;;10.90;99.90;;;;;;5121217;27;20050;-77
2022/10/19 04:19:37;;;;;;;13.63;2.17;;;10.80;99.90;;;;;;5135786;27;20375;-79
2022/10/19 04:22:03;;;;;;;13.48;3.03;;;10.80;99.90;;;;;;5116359;27;20479;-78
2022/10/19 04:24:29;;;;;;;9.15;2.58;;;10.80;99.90;;;;;;5116544;27;20039;-78
2022/10/19 04:26:55;;;;;;;17.15;2.75;;;10.70;99.90;;;;;;5134905;27;20051;-77
2022/10/19 04:29:24;;;;;;;15.07;2.10;;;10.70;99.90;;;;;;5134582;27;20058;-76
2022/10/19 04:31:51;;;;;;;12.10;1.83;;;10.60;99.90;;;;;;5137337;27;20414;-77
2022/10/19 04:34:18;;;;;;;14.57;3.17;;;10.60;99.90;;;;;;5116199;27;20504;-79
2022/10/19 04:36:44;;;;;;;12.45;2.53;;;10.60;99.90;;;;;;5134629;27;20106;-77
2022/10/19 04:39:10;;;;;;;15.35;1.83;;;10.60;99.90;;;;;;5116736;27;20151;-78
2022/10/19 04:41:37;;;;;;;12.85;2.28;;;10.50;99.90;;;;;;5116438;27;20398;-76
2022/10/19 04:44:05;;;;;;;16.83;2.20;;;10.50;99.90;;;;;;5135260;27;20051;-76
2022/10/19 04:46:31;;;;;;;13.50;2.13;;;10.50;99.90;;;;;;5119123;27;20479;-77
2022/10/19 04:48:58;;;;;;;12.02;2.30;;;10.40;99.90;;;;;;5134238;27;20508;-77
2022/10/19 04:51:25;;;;;;;10.63;1.67;;;10.40;99.90;;;;;;5116149;27;20133;-77
2022/10/19 04:53:52;;;;;;;13.27;1.95;;;10.40;99.90;;;;;;5134834;27;20051;-77
2022/10/19 04:56:25;;;;;;;10.18;1.80;;;10.50;99.90;;;;;;5116647;27;20054;-77
2022/10/19 04:58:56;;;;;;;9.85;1.40;;;10.50;99.90;;;;;;5134230;27;20051;-76
2022/10/19 05:01:24;;;;;;;12.40;2.13;;;10.50;99.90;;;;;;5136856;27;20506;-77
2022/10/19 05:04:00;;;;;;;15.30;2.00;;;10.60;99.90;;;;;;5116275;27;20947;-77
2022/10/19 05:06:27;;;;;;;12.23;2.53;;;10.60;99.90;;;;;;5134011;27;20043;-77
2022/10/19 05:08:53;;;;;;;7.60;1.40;;;10.60;99.90;;;;;;5115862;27;20457;-78
2022/10/19 05:11:19;;;;;;;13.75;1.90;;;10.60;99.90;;;;;;5134053;27;20051;-77
2022/10/19 05:13:46;;;;;;;10.45;1.42;;;10.60;99.90;;;;;;5116832;27;20058;-76
2022/10/19 05:16:17;;;;;;;11.73;1.70;;;10.70;99.90;;;;;;5136588;27;20050;-79
2022/10/19 05:18:57;;;;;;;9.90;1.58;;;10.70;99.90;;;;;;5132888;27;20055;-79
2022/10/19 05:21:24;;;;;;;10.98;1.58;;;10.70;99.90;;;;;;5133787;27;20043;-78
2022/10/19 05:23:51;;;;;;;16.67;2.17;;;10.70;99.90;;;;;;5115275;27;20587;-78
2022/10/19 05:26:18;;;;;;;16.65;3.33;;;10.70;99.90;;;;;;5114979;27;20043;-78
2022/10/19 05:28:49;;;;;;;10.93;1.95;;;10.70;99.90;;;;;;5133633;27;20047;-78
2022/10/19 05:31:18;;;;;;;6.10;1.63;;;10.80;99.90;;;;;;5118813;27;20083;-80
2022/10/19 05:33:44;;;;;;;13.13;2.80;;;10.80;99.90;;;;;;5133514;27;20047;-79
2022/10/19 05:36:15;;;;;;;19.00;1.85;;;10.80;99.90;;;;;;5133905;27;20419;-78
2022/10/19 05:38:42;;;;;;;11.63;1.63;;;10.80;99.90;;;;;;5115642;27;20054;-78
2022/10/19 05:41:08;;;;;;;12.48;1.77;;;10.80;99.90;;;;;;5114815;27;20486;-76
2022/10/19 05:43:34;;;;;;;10.70;2.00;;;10.80;99.90;;;;;;5127942;27;20063;-78
2022/10/19 05:46:06;;;;;;;11.05;1.58;;;10.80;99.90;;;;;;5115078;28;20044;-76
2022/10/19 05:48:32;;;;;;;11.43;1.83;;;10.90;99.90;;;;;;5112653;28;20055;-77
2022/10/19 05:51:00;;;;;;;7.68;1.20;;;10.90;99.90;;;;;;5112668;28;20054;-77
2022/10/19 05:53:27;;;;;;;12.07;2.40;;;10.90;99.90;;;;;;5113358;28;20086;-75
2022/10/19 05:55:53;;;;;;;10.25;1.58;;;10.90;99.90;;;;;;5113015;28;20116;-76
2022/10/19 05:58:19;;;;;;;9.82;1.42;;;10.90;99.90;;;;;;5113263;28;20054;-76
2022/10/19 06:00:51;;;;;;;13.13;2.22;;;10.90;99.90;;;;;;5117115;28;20048;-76
2022/10/19 06:03:17;;;;;;;16.35;2.75;;;10.90;99.90;;;;;;5112752;28;20036;-77
2022/10/19 06:05:43;;;;;;;12.52;1.67;;;10.90;99.90;;;;;;5111146;28;20073;-76
2022/10/19 06:08:09;;;;;;;14.77;1.58;;;10.90;99.90;;;;;;5112957;28;20051;-76
2022/10/19 06:10:35;;;;;;;13.43;1.67;;;10.90;99.90;;;;;;5113216;28;20051;-78
2022/10/19 06:13:03;;;;;;;13.13;2.38;;;11.00;99.90;;;;;;5113009;28;20445;-78
2022/10/19 06:15:32;;;;;;;10.73;1.90;;;11.00;99.90;;;;;;5111528;28;20412;-76
2022/10/19 06:17:58;;;;;;;13.45;2.08;;;11.00;99.90;;;;;;5115681;28;20048;-79
2022/10/19 06:20:27;;;;;;;8.85;1.70;;;11.10;99.90;;;;;;5112223;28;20055;-77
2022/10/19 06:22:54;;;;;;;11.70;1.38;;;11.10;99.90;;;;;;5094147;28;20056;-79
2022/10/19 06:25:20;;;;;;;11.50;2.22;;;11.10;99.90;;;;;;5112675;28;20055;-77
2022/10/19 06:27:46;;;;;;;12.60;1.50;;;11.10;99.90;;;;;;5112406;28;20055;-77
2022/10/19 06:30:12;;;;;;;14.25;1.83;;;11.20;99.90;;;;;;5111196;28;20073;-78
2022/10/19 06:32:38;;;;;;;13.25;1.90;;;11.10;99.90;;;;;;5112527;28;20047;-78
2022/10/19 06:35:04;;;;;;;12.55;1.90;;;11.20;99.90;;;;;;5111143;28;20043;-77
2022/10/19 06:37:30;;;;;;;9.88;1.30;;;11.20;99.90;;;;;;5111874;28;20087;-77
2022/10/19 06:39:56;;;;;;;9.13;1.55;;;11.20;99.90;;;;;;5095928;28;20058;-77
2022/10/19 06:42:23;;;;;;;15.63;2.55;;;11.20;99.90;;;;;;5114833;27;20115;-78
2022/10/19 06:44:49;;;;;;;11.15;1.65;;;11.20;99.90;;;;;;5097412;27;20542;-77
2022/10/19 06:47:14;;;;;;;13.43;1.90;;;11.30;99.90;;;;;;5113742;27;20130;-77
2022/10/19 06:49:40;;;;;;;8.23;1.40;;;11.30;99.90;;;;;;5113556;27;20198;-76
2022/10/19 06:52:07;;;;;;;11.77;1.83;;;11.30;99.90;;;;;;5131598;27;20395;-78
2022/10/19 06:54:32;;;;;;;14.00;1.60;;;11.30;99.90;;;;;;5133611;27;20055;-77
2022/10/19 06:56:59;;;;;;;9.73;1.60;;;11.40;99.90;;;;;;5114209;27;20043;-77
2022/10/19 06:59:25;;;;;;;9.07;1.33;;;11.40;99.90;;;;;;5114252;27;20143;-77
2022/10/19 07:01:51;;;;;;;9.65;1.98;;;11.40;99.90;;;;;;5113611;28;20434;-76
2022/10/19 07:04:17;;;;;;;9.88;2.00;;;11.40;99.90;;;;;;5132517;27;20302;-76
2022/10/19 07:06:42;;;;;;;10.10;1.60;;;11.40;99.90;;;;;;5132462;27;20070;-76
2022/10/19 07:09:08;;;;;;;10.57;1.48;;;11.50;99.90;;;;;;5118502;28;20072;-77
2022/10/19 07:11:34;;;;;;;8.70;1.42;;;11.50;99.90;;;;;;5114594;28;20047;-77
2022/10/19 07:14:00;;;;;;;11.65;1.92;;;11.50;99.90;;;;;;5132046;28;20055;-77
2022/10/19 07:16:26;;;;;;;7.78;1.30;;;11.50;99.90;;;;;;5113904;28;20134;-78
2022/10/19 07:18:52;;;;;;;7.80;2.25;;;11.60;99.90;;;;;;5132285;28;20122;-77
2022/10/19 07:21:21;;;;;;;13.07;1.58;;;11.60;99.90;;;;;;5080147;28;20558;-77
2022/10/19 07:23:47;;;;;;;10.55;2.08;;;11.70;99.90;;;;;;5113770;28;20447;-78
2022/10/19 07:26:22;;;;;;;9.80;2.08;;;11.70;99.90;;;;;;5134850;28;20051;-78
2022/10/19 07:28:48;;;;;;;15.15;1.55;;;11.70;99.90;;;;;;5113781;28;20043;-77
2022/10/19 07:31:17;;;;;;;9.68;1.52;;;11.80;99.90;;;;;;5132144;28;20039;-76
2022/10/19 07:33:44;;;;;;;10.13;1.90;;;11.80;99.90;;;;;;5113386;28;20050;-77
2022/10/19 07:36:12;;;;;;;11.77;1.50;;;11.80;99.90;;;;;;5113798;28;20066;-78
2022/10/19 07:38:39;;;;;;;9.82;1.88;;;11.90;99.90;;;;;;5133936;28;20569;-77
2022/10/19 07:41:13;;;;;;;8.63;1.30;;;11.90;99.90;;;;;;5130632;28;20043;-78
2022/10/19 07:43:41;;;;;;;9.00;1.42;;;12.00;99.90;;;;;;5131560;28;20517;-77
2022/10/19 07:46:12;;;;;;;16.27;2.30;;;12.00;99.90;;;;;;5131616;28;20108;-78
2022/10/19 07:48:37;;;;;;;6.95;1.70;;;12.00;99.90;;;;;;5131507;28;20062;-78
2022/10/19 07:51:05;;;;;;;11.35;2.22;;;12.10;99.90;;;;;;5113109;28;20047;-77
2022/10/19 07:53:33;;;;;;;17.48;2.60;;;12.20;99.90;;;;;;5113567;28;20059;-76
2022/10/19 07:56:10;;;;;;;10.60;1.77;;;12.20;99.90;;;;;;5135118;28;20402;-77
2022/10/19 07:58:36;;;;;;;13.45;1.40;;;12.20;99.90;;;;;;5113483;28;20043;-78
2022/10/19 08:01:10;;;;;;;13.40;2.00;;;12.30;99.90;;;;;;5131995;28;20051;-77
2022/10/19 08:03:36;;;;;;;10.48;1.95;;;12.30;99.90;;;;;;5131776;28;20138;-77
2022/10/19 08:06:08;;;;;;;11.10;2.03;;;12.30;99.90;;;;;;5131261;27;20047;-77
2022/10/19 08:08:35;;;;;;;14.20;1.77;;;12.40;99.90;;;;;;5135409;27;20387;-79
2022/10/19 08:11:18;;;;;;;12.77;2.35;;;12.40;99.90;;;;;;5135667;27;20051;-77
2022/10/19 08:13:45;;;;;;;9.57;1.58;;;12.40;99.90;;;;;;5120374;27;20544;-77
2022/10/19 08:16:31;;;;;;;9.55;1.80;;;12.40;99.90;;;;;;5116881;27;20051;-79
2022/10/19 08:19:03;;;;;;;8.52;1.60;;;12.50;99.90;;;;;;5099866;27;20058;-76
2022/10/19 08:21:30;;;;;;;11.43;1.55;;;12.50;99.90;;;;;;5100096;27;20046;-76
2022/10/19 08:23:56;;;;;;;14.50;1.98;;;12.60;99.90;;;;;;5116510;27;20047;-77
2022/10/19 08:26:23;;;;;;;10.82;1.90;;;12.70;99.90;;;;;;5135596;27;20043;-79
2022/10/19 08:28:49;;;;;;;7.80;1.83;;;12.70;99.90;;;;;;5138911;27;20562;-80
2022/10/19 08:31:18;;;;;;;9.02;2.03;;;12.70;99.90;;;;;;5135671;27;20097;-77
2022/10/19 08:33:44;;;;;;;14.15;1.83;;;12.80;99.90;;;;;;5135695;27;20042;-76
2022/10/19 08:36:12;;;;;;;8.88;1.25;;;12.80;99.90;;;;;;5099550;27;20094;-80
2022/10/19 08:38:39;;;;;;;10.05;2.22;;;12.80;99.90;;;;;;5098967;27;20047;-79
2022/10/19 08:41:40;;;;;;;8.80;1.42;;;12.80;99.90;;;;;;5135648;27;20118;-77
2022/10/19 08:44:24;;;;;;;9.15;1.48;;;12.90;99.90;;;;;;5133849;27;20055;-76
2022/10/19 08:47:19;;;;;;;12.88;2.65;;;12.90;99.90;;;;;;5134695;27;20373;-77
2022/10/19 08:49:45;;;;;;;;;;;13.00;99.90;;;;;;5112926;27;20133;-77
2022/10/19 08:52:21;;;;;;;5.68;1.40;;;13.00;99.90;;;;;;5134906;27;19958;-79
2022/10/19 08:54:57;;;;;;;9.18;1.70;;;13.00;99.90;;;;;;5134608;27;20096;-77
2022/10/19 08:57:49;;;;;;;9.88;1.20;;;13.10;99.90;;;;;;5116870;27;20138;-77
2022/10/19 09:00:42;;;;;;;8.82;1.63;;;13.10;99.90;;;;;;5115753;27;20112;-78
2022/10/19 09:03:11;;;;;;;14.25;1.95;;;13.20;99.90;;;;;;5134151;27;20521;-78
2022/10/19 09:05:49;;;;;;;12.63;1.80;;;13.30;99.90;;;;;;5115534;27;20059;-79
2022/10/19 09:08:16;;;;;;;9.82;1.33;;;13.30;99.90;;;;;;5115845;27;20132;-77
2022/10/19 09:10:46;;;;;;;13.38;2.35;;;13.30;99.90;;;;;;5133918;27;20124;-76
2022/10/19 09:13:34;;;;;;;13.75;2.05;;;13.30;99.90;;;;;;5116212;27;20106;-78
2022/10/19 09:16:01;;;;;;;13.00;1.65;;;13.40;99.90;;;;;;5134187;27;20134;-78
2022/10/19 09:18:31;;;;;;;10.15;1.85;;;13.50;99.90;;;;;;5132776;27;20130;-79
2022/10/19 09:21:05;;;;;;;9.65;1.42;;;13.50;99.90;;;;;;5134033;27;20047;-77
2022/10/19 09:23:55;;;;;;;13.70;2.58;;;13.50;99.90;;;;;;5134232;27;20070;-78
2022/10/19 09:26:24;;;;;;;10.93;1.58;;;13.50;99.90;;;;;;5115965;27;20054;-77
2022/10/19 09:29:02;;;;;;;10.32;1.42;;;13.40;99.90;;;;;;5115628;27;20039;-79
2022/10/19 09:31:36;;;;;;;10.55;1.63;;;13.50;99.90;;;;;;5134377;27;20070;-78
2022/10/19 09:34:07;;;;;;;11.90;1.63;;;13.50;99.90;;;;;;5133520;27;20126;-77
2022/10/19 09:36:40;;;;;;;14.13;2.72;;;13.60;99.90;;;;;;5133979;27;20135;-77
2022/10/19 09:39:14;;;;;;;15.35;2.30;;;13.60;99.90;;;;;;5117332;27;20047;-76
2022/10/19 09:41:55;;;;;;;14.93;2.30;;;13.70;99.90;;;;;;5134197;27;20510;-77
2022/10/19 09:44:23;;;;;;;12.02;2.10;;;13.80;99.90;;;;;;5111350;28;20301;-76
2022/10/19 09:46:51;;;;;;;9.85;2.05;;;13.90;99.90;;;;;;5112675;28;20043;-76
2022/10/19 09:49:36;;;;;;;10.32;1.52;;;13.80;99.90;;;;;;5111463;28;20051;-78
2022/10/19 09:52:02;;;;;;;9.15;1.73;;;13.90;99.90;;;;;;5094595;28;20052;-78
2022/10/19 09:54:37;;;;;;;9.32;1.30;;;13.90;99.90;;;;;;5115236;28;20043;-77
2022/10/19 09:57:04;;;;;;;;;;;13.90;99.90;;;;;;5113379;28;20036;-76
2022/10/19 09:59:35;;;;;;;11.43;2.00;;;13.90;99.90;;;;;;5111076;28;19928;-76
2022/10/19 10:02:17;;;;;;;12.82;1.85;;;13.90;99.90;;;;;;5110877;28;20055;-77
2022/10/19 10:04:56;;;;;;;8.82;1.50;;;14.00;99.90;;;;;;5111071;28;20047;-77
2022/10/19 10:07:28;;;;;;;11.05;1.58;;;14.00;99.90;;;;;;5112846;28;20047;-78
2022/10/19 10:09:58;;;;;;;11.82;1.80;;;14.10;99.90;;;;;;5113325;28;20109;-76
2022/10/19 10:12:24;;;;;;;14.65;1.95;;;14.10;99.90;;;;;;5094050;28;20113;-77
2022/10/19 10:14:50;;;;;;;9.35;1.80;;;14.10;99.90;;;;;;5112558;28;20495;-77
2022/10/19 10:17:29;;;;;;;6.90;1.88;;;14.10;99.90;;;;;;5112495;28;20188;-76
2022/10/19 10:19:57;;;;;;;13.75;2.25;;;14.20;99.90;;;;;;5112290;27;20047;-77
2022/10/19 10:22:30;;;;;;;10.32;1.48;;;14.20;99.90;;;;;;5110631;28;20429;-76
2022/10/19 10:24:56;;;;;;;8.55;1.85;;;14.20;99.90;;;;;;5112315;28;20050;-78
2022/10/19 10:27:36;;;;;;;6.70;1.33;;;14.30;99.90;;;;;;5110670;28;20108;-77
2022/10/19 10:30:15;;;;;;;6.20;1.67;;;14.30;99.90;;;;;;5127385;27;20056;-78
2022/10/19 10:32:50;;;;;;;10.55;1.95;;;14.40;99.90;;;;;;5112062;28;20403;-77
2022/10/19 10:35:24;;;;;;;10.10;1.60;;;14.50;99.90;;;;;;5111127;28;20092;-75
2022/10/19 10:37:51;;;;;;;8.98;1.50;;;14.60;99.90;;;;;;5110385;28;20059;-77
2022/10/19 10:40:25;;;;;;;11.55;2.10;;;14.60;99.90;;;;;;5112934;28;20075;-76
2022/10/19 10:42:53;;;;;;;10.23;2.13;;;14.60;99.90;;;;;;5093884;28;20116;-76
2022/10/19 10:45:37;;;;;;;5.65;1.48;;;14.50;99.90;;;;;;5110018;28;20063;-78
2022/10/19 10:48:26;;;;;;;10.35;2.03;;;14.60;99.90;;;;;;5111805;28;20136;-79
2022/10/19 10:50:52;;;;;;;9.65;1.75;;;14.60;99.90;;;;;;5110050;28;20558;-76
2022/10/19 10:53:42;;;;;;;19.40;2.67;;;14.60;99.90;;;;;;5113148;28;20138;-77
2022/10/19 10:56:28;;;;;;;10.63;1.42;;;14.70;99.90;;;;;;5111523;28;20051;-77
2022/10/19 10:59:11;;;;;;;5.90;1.45;;;14.80;99.90;;;;;;5110088;28;20087;-76
2022/10/19 11:01:47;;;;;;;11.07;1.92;;;15.00;99.90;;;;;;5093282;28;20135;-77
2022/10/19 11:04:21;;;;;;;9.52;1.38;;;15.10;99.90;;;;;;5110332;28;20478;-79
2022/10/19 11:06:52;;;;;;;;;;;15.40;99.90;;;;;;5112227;28;20052;-77
2022/10/19 11:09:30;;;;;;;9.75;1.20;;;15.50;99.90;;;;;;5111600;28;19924;-79
2022/10/19 11:12:01;;;;;;;6.55;1.60;;;15.70;99.90;;;;;;5127392;27;20047;-77
2022/10/19 11:15:04;;;;;;;8.00;1.75;;;15.70;99.90;;;;;;5112201;28;20041;-77
2022/10/19 11:17:35;;;;;;;14.30;2.05;;;15.90;99.90;;;;;;5089048;28;20088;-79
2022/10/19 11:20:01;;;;;;;10.02;1.15;;;16.10;99.90;;;;;;5111429;28;20067;-79
2022/10/19 11:22:57;;;;;;;16.02;2.58;;;16.60;99.90;;;;;;5111681;28;20486;-78
2022/10/19 11:25:39;;;;;;;12.57;2.83;;;16.80;98.30;;;;;;5110176;28;20411;-79
2022/10/19 11:28:14;;;;;;;10.73;1.55;;;16.80;98.70;;;;;;5110446;28;20510;-77
2022/10/19 11:31:08;;;;;;;5.35;1.50;;;16.40;98.50;;;;;;5109877;28;20104;-79
2022/10/19 11:33:50;;;;;;;7.43;1.20;;;16.20;99.10;;;;;;5109831;28;20043;-77
2022/10/19 11:36:49;;;;;;;9.60;1.50;;;15.90;99.40;;;;;;5112888;28;20065;-78
2022/10/19 11:39:46;;;;;;;9.52;1.42;;;15.70;99.30;;;;;;5109663;28;20063;-76
2022/10/19 11:42:20;;;;;;;7.82;1.38;;;15.70;99.90;;;;;;5080464;28;20056;-76
2022/10/19 11:44:48;;;;;;;;;;;15.60;99.90;;;;;;5096808;28;20191;-76
2022/10/19 11:47:33;;;;;;;12.35;1.83;;;15.60;99.90;;;;;;5131287;27;19979;-77
2022/10/19 11:50:37;;;;;;;9.57;1.60;;;15.50;99.90;;;;;;5118023;28;20063;-77
2022/10/19 11:53:15;;;;;;;10.30;1.30;;;15.40;99.90;;;;;;5113601;28;20048;-77
2022/10/19 11:55:56;;;;;;;11.98;1.90;;;15.40;99.90;;;;;;5113339;28;20459;-76
2022/10/19 11:58:38;;;;;;;9.32;1.52;;;15.30;99.90;;;;;;5115213;28;20055;-75
2022/10/19 12:01:34;;;;;;;8.52;1.70;;;15.30;99.90;;;;;;5114023;28;20055;-76
2022/10/19 12:04:22;;;;;;;9.88;1.67;;;15.50;99.90;;;;;;5116445;28;20165;-78
2022/10/19 12:06:57;;;;;;;11.65;1.50;;;15.40;99.90;;;;;;5114680;28;20044;-75
2022/10/19 12:09:27;;;;;;;;;;;15.30;99.90;;;;;;5115774;28;20051;-77
2022/10/19 12:12:10;;;;;;;8.82;1.92;;;15.20;99.90;;;;;;5115052;28;19927;-77
2022/10/19 12:14:40;;;;;;;11.30;1.35;;;15.30;99.90;;;;;;5113869;28;20043;-77
2022/10/19 12:17:19;;;;;;;12.93;1.70;;;15.30;99.90;;;;;;5115575;28;20107;-77
2022/10/19 12:19:51;;;;;;;8.27;1.90;;;15.20;99.90;;;;;;5116676;28;20047;-77
2022/10/19 12:22:25;;;;;;;12.57;2.45;;;15.50;99.90;;;;;;5113431;28;20078;-78
2022/10/19 12:25:00;;;;;;;9.32;1.60;;;16.60;99.90;;;;;;5113659;28;20055;-80
2022/10/19 12:27:31;;;;;;;6.53;1.55;;;16.90;99.40;;;;;;5130330;27;20571;-78
2022/10/19 12:30:04;;;;;;;9.32;1.58;;;16.70;98.70;;;;;;5114644;27;20092;-79
2022/10/19 12:32:42;;;;;;;8.27;1.55;;;16.40;98.90;;;;;;5114403;28;20399;-76
2022/10/19 12:35:32;;;;;;;7.43;1.70;;;16.20;99.10;;;;;;5114699;28;20094;-78
2022/10/19 12:38:10;;;;;;;9.00;2.15;;;15.90;99.40;;;;;;5112970;28;20097;-78
2022/10/19 12:40:45;;;;;;;8.60;1.77;;;15.70;99.90;;;;;;5096082;28;20138;-75
2022/10/19 12:43:32;;;;;;;6.97;1.33;;;15.80;99.90;;;;;;5114695;28;20357;-78
2022/10/19 12:46:13;;;;;;;10.38;1.55;;;16.80;99.90;;;;;;5123803;27;20093;-77
2022/10/19 12:48:42;;;;;;;7.85;1.60;;;17.60;98.80;;;;;;5135590;27;20131;-78
2022/10/19 12:51:14;;;;;;;6.15;1.55;;;18.30;98.10;;;;;;5134366;27;20043;-79
2022/10/19 12:53:43;;;;;;;4.10;1.05;;;18.90;96.60;;;;;;5132823;27;20055;-77
2022/10/19 12:56:15;;;;;;;11.68;3.25;;;18.80;96.30;;;;;;5115810;27;20062;-78
2022/10/19 12:58:41;;;;;;;7.25;1.20;;;18.50;95.60;;;;;;5115889;27;20043;-77
2022/10/19 13:01:10;;;;;;;12.50;2.30;;;17.90;96.60;;;;;;5135623;27;20053;-77
2022/10/19 13:03:40;;;;;;;6.05;1.33;;;18.10;96.30;;;;;;5136110;27;20042;-79
2022/10/19 13:06:21;;;;;;;9.57;1.30;;;18.40;95.50;;;;;;5099627;27;20146;-76